Time;durP1;ratioP1;P1;durP2;ratioP2;P2;SDS_P1;SDS_P2;PMS_P1;PMS_P2;Temp;Humidity;BMP_temperature;BMP_pressure;BME280_temperature;BME280_humidity;BME280_pressure;Samples;Min_cycle;Max_cycle;Signal;HPM_P1;HPM_P2
2023/01/01 00:00:17;;;;;;;16.10;11.73;;;19.40;53.10;;;18.49;54.40;100739.34;12249999;19;20476;-84
2023/01/01 00:04:19;;;;;;;9.95;8.48;;;19.40;53.20;;;18.47;54.37;100751.88;12247008;19;20334;-84
2023/01/01 00:08:21;;;;;;;11.15;9.32;;;19.30;52.90;;;18.37;54.34;100740.44;12250348;19;20018;-84
2023/01/01 00:12:22;;;;;;;7.13;6.03;;;19.30;52.60;;;18.44;54.00;100773.28;12253005;19;20018;-84
2023/01/01 00:16:24;;;;;;;7.13;5.38;;;19.30;52.90;;;18.44;54.17;100776.78;12262157;19;20049;-84
2023/01/01 00:20:26;;;;;;;7.75;4.80;;;19.30;52.80;;;18.42;54.17;100765.50;12265864;19;20022;-83
2023/01/01 00:24:28;;;;;;;7.68;5.18;;;19.30;52.90;;;18.43;53.92;100780.41;12265835;19;20018;-84
2023/01/01 00:28:31;;;;;;;5.93;4.57;;;19.30;52.70;;;18.25;54.15;100750.28;12268184;19;20021;-84
2023/01/01 00:32:33;;;;;;;5.95;4.53;;;19.30;52.60;;;18.31;54.10;100771.75;12267150;19;20565;-83
2023/01/01 00:36:35;;;;;;;6.82;3.92;;;19.30;52.40;;;18.32;53.99;100776.03;12266830;19;20017;-84
2023/01/01 00:40:36;;;;;;;5.35;4.15;;;19.30;52.40;;;18.32;53.82;100776.03;12263956;19;20006;-84
2023/01/01 00:44:41;;;;;;;6.88;3.83;;;19.30;52.20;;;18.37;53.99;100796.81;12258971;19;20018;-84
2023/01/01 00:48:43;;;;;;;6.00;3.37;;;19.30;52.30;;;18.31;53.95;100778.84;12260346;19;20011;-84
2023/01/01 00:52:44;;;;;;;5.05;3.35;;;19.30;52.20;;;18.32;53.64;100791.91;12257721;19;20034;-84
2023/01/01 00:56:46;;;;;;;3.78;3.30;;;19.30;51.70;;;18.35;53.62;100790.81;12259415;19;20025;-83
2023/01/01 01:00:49;;;;;;;4.47;3.50;;;19.20;51.70;;;18.38;53.33;100790.53;12259073;19;20014;-83
2023/01/01 01:04:51;;;;;;;5.05;3.40;;;19.20;51.60;;;18.35;53.44;100799.56;12257670;19;20359;-83
2023/01/01 01:08:52;;;;;;;4.50;2.80;;;19.30;51.70;;;18.35;53.26;100799.56;12258574;19;20015;-84
2023/01/01 01:12:54;;;;;;;3.15;2.33;;;19.20;51.60;;;18.34;53.44;100802.38;12256077;19;20018;-83
2023/01/01 01:16:56;;;;;;;3.25;2.60;;;19.20;51.20;;;18.36;53.30;100813.63;12260247;19;20010;-83
2023/01/01 01:20:58;;;;;;;3.45;2.22;;;19.30;51.50;;;18.32;53.29;100802.47;12258362;19;20022;-83
2023/01/01 01:25:00;;;;;;;3.33;2.72;;;19.20;51.00;;;18.35;53.04;100802.22;12253513;19;20018;-83
2023/01/01 01:29:03;;;;;;;4.85;2.60;;;19.30;51.00;;;18.33;53.22;100803.31;12257215;19;20043;-83
2023/01/01 01:33:05;;;;;;;2.72;2.20;;;19.20;50.70;;;18.31;52.70;100808.75;12256255;19;20353;-83
2023/01/01 01:37:07;;;;;;;3.92;2.28;;;19.20;50.80;;;18.29;52.97;100812.50;12257777;19;20031;-83
2023/01/01 01:41:12;;;;;;;4.25;2.45;;;19.20;50.90;;;18.29;52.68;100805.41;12256349;19;20049;-83
2023/01/01 01:45:15;;;;;;;2.50;2.30;;;19.30;50.80;;;18.39;52.72;100810.72;12252043;19;20018;-83
2023/01/01 01:49:30;;;;;;;3.28;2.33;;;19.20;50.70;;;18.29;52.65;100807.22;12258094;19;20011;-83
2023/01/01 01:53:37;;;;;;;2.53;2.33;;;19.20;50.60;;;18.35;52.74;100809.31;12254709;19;20006;-83
2023/01/01 01:57:40;;;;;;;2.97;2.60;;;19.30;50.50;;;18.32;52.33;100804.28;12256318;19;20014;-83
2023/01/01 02:01:42;;;;;;;2.70;2.40;;;19.30;50.30;;;18.28;52.62;100792.28;12252815;19;20011;-83
2023/01/01 02:05:46;;;;;;;3.10;2.35;;;19.30;50.60;;;18.37;52.51;100817.13;12252732;19;20078;-83
2023/01/01 02:09:47;;;;;;;2.92;2.50;;;19.30;50.60;;;18.30;52.68;100807.06;12253223;19;20018;-83
2023/01/01 02:13:52;;;;;;;2.00;1.90;;;19.30;50.50;;;18.31;52.26;100814.03;12250575;19;20014;-83
2023/01/01 02:18:10;;;;;;;4.40;2.58;;;19.30;50.50;;;18.12;52.36;100785.72;12253669;19;20070;-83
2023/01/01 02:22:35;;;;;;;3.20;2.50;;;19.20;50.10;;;18.29;52.54;100825.72;12252324;19;20025;-83
2023/01/01 02:27:02;;;;;;;5.60;2.55;;;19.20;50.50;;;18.25;52.33;100811.06;12249800;19;20473;-83
2023/01/01 02:31:05;;;;;;;5.30;2.75;;;19.20;50.30;;;18.21;52.16;100807.03;12251987;19;20029;-83
2023/01/01 02:35:37;;;;;;;3.00;2.22;;;19.20;50.10;;;18.24;52.01;100815.53;12247518;19;20018;-83
2023/01/01 02:39:49;;;;;;;3.35;2.53;;;19.10;50.20;;;18.20;52.00;100813.28;12257395;19;20022;-83
2023/01/01 02:43:52;;;;;;;4.93;2.38;;;19.20;50.00;;;18.24;51.99;100817.34;12256052;19;20048;-83
2023/01/01 02:47:54;;;;;;;4.10;2.38;;;19.10;49.80;;;18.24;51.81;100820.81;12260510;19;20094;-83
2023/01/01 02:52:05;;;;;;;5.43;2.58;;;19.10;50.10;;;18.24;52.06;100819.97;12260678;19;20014;-83
2023/01/01 02:56:31;;;;;;;5.38;2.50;;;19.10;50.10;;;18.18;51.70;100815.22;12260250;19;20021;-83
2023/01/01 03:00:34;;;;;;;3.75;2.70;;;19.10;49.80;;;18.17;51.76;100813.53;12257368;19;20022;-84
2023/01/01 03:05:03;;;;;;;4.32;2.85;;;19.10;49.90;;;18.05;51.97;100795.13;12255337;19;20027;-84
2023/01/01 03:09:28;;;;;;;5.90;2.60;;;19.10;50.10;;;18.07;51.64;100793.19;12254659;19;20018;-83
2023/01/01 03:14:07;;;;;;;3.83;2.58;;;19.10;49.90;;;18.16;51.49;100807.41;12250842;19;20035;-83
2023/01/01 03:18:29;;;;;;;3.35;2.17;;;19.00;49.50;;;18.11;51.55;100807.81;12255171;19;20028;-83
2023/01/01 03:22:35;;;;;;;2.28;1.90;;;19.00;50.00;;;18.03;51.52;100796.22;12254956;19;20053;-83
2023/01/01 03:26:40;;;;;;;3.92;2.42;;;19.00;50.00;;;18.04;51.42;100803.19;12251393;19;20018;-84
2023/01/01 03:30:46;;;;;;;4.63;2.73;;;19.00;49.50;;;18.07;51.69;100819.63;12252697;19;20465;-83
2023/01/01 03:34:53;;;;;;;5.07;2.28;;;19.00;49.80;;;18.02;51.53;100813.06;12253122;19;20278;-83
2023/01/01 03:39:04;;;;;;;4.10;2.30;;;19.00;49.90;;;18.09;51.39;100827.41;12253202;19;20615;-83
2023/01/01 03:43:39;;;;;;;3.17;2.28;;;19.00;50.00;;;17.79;51.48;100788.56;12251947;19;20481;-83
2023/01/01 03:47:42;;;;;;;4.53;2.63;;;19.00;49.90;;;18.00;51.30;100822.91;12253554;19;20014;-84
2023/01/01 03:52:04;;;;;;;3.28;2.45;;;19.00;49.80;;;18.05;51.30;100821.56;12253318;19;20799;-83
2023/01/01 03:56:32;;;;;;;3.60;2.38;;;18.90;49.90;;;18.04;51.46;100825.19;12253752;19;20025;-84
2023/01/01 04:00:58;;;;;;;3.25;2.55;;;18.90;49.90;;;17.99;51.36;100827.38;12254466;19;20018;-84
2023/01/01 04:05:02;;;;;;;3.33;2.60;;;18.90;49.60;;;18.01;51.32;100843.06;12248253;19;20380;-83
2023/01/01 04:09:08;;;;;;;4.32;2.63;;;18.90;49.80;;;17.96;51.22;100850.56;12250277;19;20432;-83
2023/01/01 04:13:10;;;;;;;5.75;2.53;;;18.90;49.60;;;17.98;51.12;100860.03;12249876;19;20488;-83
2023/01/01 04:17:12;;;;;;;5.57;2.83;;;18.90;49.90;;;17.69;50.96;100821.03;12251151;19;20366;-83
2023/01/01 04:21:14;;;;;;;6.30;2.85;;;18.90;49.60;;;17.87;51.15;100860.09;12249927;19;20094;-83
2023/01/01 04:25:17;;;;;;;6.72;2.53;;;18.80;49.80;;;17.90;51.06;100865.97;12246454;19;20010;-83
2023/01/01 04:29:19;;;;;;;3.33;2.58;;;18.80;49.70;;;17.92;51.25;100882.53;12251626;19;20014;-84
2023/01/01 04:33:21;;;;;;;3.33;2.60;;;18.80;49.60;;;17.83;50.99;100869.25;12249345;19;20014;-83
2023/01/01 04:37:23;;;;;;;4.97;3.00;;;18.80;49.70;;;17.84;50.98;100879.69;12251004;19;20010;-84
2023/01/01 04:41:25;;;;;;;3.78;2.30;;;18.80;49.80;;;17.85;51.20;100880.53;12246656;19;20357;-83
2023/01/01 04:45:26;;;;;;;4.72;2.70;;;18.70;49.70;;;17.86;51.06;100890.13;12248520;19;20108;-83
2023/01/01 04:49:28;;;;;;;4.38;2.15;;;18.70;49.60;;;17.80;50.88;100880.91;12248542;19;20080;-83
2023/01/01 04:53:33;;;;;;;7.05;2.60;;;18.70;49.70;;;17.82;51.02;100888.69;12248057;19;20027;-83
2023/01/01 04:57:35;;;;;;;2.83;2.58;;;18.70;49.50;;;17.80;50.64;100894.13;12249933;19;20022;-83
2023/01/01 05:01:37;;;;;;;7.22;2.28;;;18.70;49.40;;;17.68;50.94;100860.75;12261780;19;20020;-83
2023/01/01 05:05:39;;;;;;;3.55;2.65;;;18.60;49.60;;;17.54;50.80;100861.06;12261388;19;20433;-83
2023/01/01 05:09:41;;;;;;;2.40;2.00;;;18.60;49.80;;;17.73;50.84;100906.13;12266034;19;20364;-83
2023/01/01 05:13:46;;;;;;;5.72;2.63;;;18.60;49.80;;;17.69;50.98;100902.06;12258421;19;20006;-82
2023/01/01 05:17:48;;;;;;;3.13;2.33;;;18.60;49.90;;;17.60;50.76;100889.59;12264743;19;20014;-83
2023/01/01 05:21:50;;;;;;;3.30;2.00;;;18.60;49.70;;;17.57;50.89;100888.06;12261242;19;20015;-83
2023/01/01 05:25:51;;;;;;;2.83;2.33;;;18.60;49.70;;;17.58;50.92;100892.41;12259389;19;20010;-83
2023/01/01 05:29:53;;;;;;;2.83;2.03;;;18.50;49.90;;;17.63;50.75;100908.69;12263248;19;20006;-83
2023/01/01 05:33:56;;;;;;;3.45;1.90;;;18.50;49.80;;;17.63;50.63;100919.25;12257964;19;20035;-83
2023/01/01 05:37:59;;;;;;;4.57;2.40;;;18.50;49.70;;;17.25;50.60;100861.63;12259193;19;20049;-84
2023/01/01 05:42:00;;;;;;;2.47;2.03;;;18.50;49.90;;;17.57;50.84;100911.81;12258179;19;20147;-83
2023/01/01 05:46:06;;;;;;;2.40;2.08;;;18.50;50.00;;;17.53;50.67;100923.63;12255484;19;20036;-83
2023/01/01 05:50:09;;;;;;;5.40;2.17;;;18.40;50.00;;;17.53;50.68;100913.06;12260102;19;20042;-83
2023/01/01 05:54:11;;;;;;;3.58;2.17;;;18.40;49.90;;;17.56;50.66;100920.72;12258205;19;20018;-83
2023/01/01 05:58:13;;;;;;;3.50;2.20;;;18.40;49.90;;;17.50;50.71;100904.53;12257408;19;20011;-83
2023/01/01 06:02:15;;;;;;;1.85;1.75;;;18.40;50.30;;;17.44;50.86;100900.59;12252364;19;20035;-83
2023/01/01 06:06:20;;;;;;;2.28;1.85;;;18.40;50.20;;;17.46;50.76;100901.31;12253490;19;20006;-83
2023/01/01 06:10:22;;;;;;;3.75;2.05;;;18.40;50.20;;;17.36;50.92;100882.75;12256337;19;20010;-84
2023/01/01 06:14:24;;;;;;;3.08;2.08;;;18.40;50.30;;;17.43;50.64;100905.03;12254704;19;20018;-83
2023/01/01 06:18:30;;;;;;;3.70;2.17;;;18.40;50.00;;;17.45;50.86;100912.84;12255256;19;20687;-83
2023/01/01 06:22:36;;;;;;;2.28;2.03;;;18.40;50.10;;;17.48;50.63;100923.16;12253519;19;20006;-84
2023/01/01 06:26:38;;;;;;;3.25;1.70;;;18.40;50.20;;;17.28;50.62;100886.94;12253098;19;20007;-83
2023/01/01 06:30:40;;;;;;;2.22;1.58;;;18.40;50.20;;;17.49;50.63;100932.72;12253783;19;20013;-83
2023/01/01 06:34:41;;;;;;;5.28;1.85;;;18.40;50.20;;;17.50;50.70;100952.03;12252432;19;20038;-83
2023/01/01 06:38:46;;;;;;;4.05;1.70;;;18.40;50.10;;;17.44;50.78;100953.38;12256674;19;20011;-84
2023/01/01 06:42:49;;;;;;;2.03;1.80;;;18.40;50.20;;;17.46;50.64;100972.59;12252370;19;20014;-83
2023/01/01 06:46:51;;;;;;;2.47;2.15;;;18.40;50.40;;;17.51;50.84;100964.31;12251256;19;20356;-83
2023/01/01 06:50:53;;;;;;;4.63;1.80;;;18.40;50.20;;;17.42;50.89;100966.72;12256017;19;20007;-84
2023/01/01 06:54:55;;;;;;;2.25;1.85;;;18.40;50.30;;;17.43;50.56;100976.31;12251019;19;20023;-83
2023/01/01 06:58:57;;;;;;;2.45;2.25;;;18.40;50.30;;;17.51;50.58;100978.34;12254922;19;20037;-83
2023/01/01 07:02:59;;;;;;;3.38;2.40;;;18.40;50.20;;;17.47;50.72;100966.34;12250135;19;20072;-84
2023/01/01 07:07:01;;;;;;;6.53;2.53;;;18.40;50.00;;;17.43;50.56;100967.56;12252930;19;20018;-83
2023/01/01 07:11:03;;;;;;;4.25;2.40;;;18.40;50.20;;;17.47;50.70;100969.84;12253999;19;20103;-83
2023/01/01 07:15:06;;;;;;;3.35;2.90;;;18.40;49.70;;;17.54;50.37;100977.25;12250913;19;20006;-83
2023/01/01 07:19:08;;;;;;;4.07;2.78;;;18.40;49.80;;;17.45;50.72;100976.19;12253636;19;20007;-84
2023/01/01 07:23:11;;;;;;;3.20;2.53;;;18.40;49.80;;;17.54;50.61;100979.91;12247114;19;20007;-83
2023/01/01 07:27:13;;;;;;;2.75;2.08;;;18.40;50.30;;;17.37;50.57;100963.63;12253998;19;20023;-84
2023/01/01 07:31:14;;;;;;;4.15;2.60;;;18.40;49.90;;;17.54;50.60;100993.94;12255233;19;20018;-84
2023/01/01 07:35:16;;;;;;;3.13;2.42;;;18.40;49.60;;;17.50;50.28;100991.66;12255670;19;20015;-84
2023/01/01 07:39:18;;;;;;;4.30;2.53;;;18.50;49.70;;;17.51;50.38;100996.81;12257378;19;20023;-83
2023/01/01 07:43:19;;;;;;;3.10;2.38;;;18.50;49.80;;;17.59;50.40;101012.06;12255615;19;20007;-83
2023/01/01 07:47:25;;;;;;;3.38;2.55;;;18.50;49.60;;;17.52;50.50;100997.66;12255408;19;20028;-83
2023/01/01 07:51:26;;;;;;;3.03;2.55;;;18.50;49.50;;;17.39;50.25;100974.03;12252009;19;20010;-84
2023/01/01 07:55:28;;;;;;;3.40;2.28;;;18.50;49.40;;;17.51;50.17;100999.47;12255905;19;20070;-84
2023/01/01 07:59:31;;;;;;;3.75;2.50;;;18.50;49.70;;;17.51;50.17;101012.66;12250326;19;20081;-84
2023/01/01 08:03:33;;;;;;;3.90;2.50;;;18.50;49.70;;;17.60;50.43;101029.56;12252451;19;20025;-83
2023/01/01 08:07:35;;;;;;;5.55;2.65;;;18.50;49.40;;;17.63;50.50;101042.53;12252663;19;20010;-84
2023/01/01 08:11:36;;;;;;;3.05;2.53;;;18.50;49.70;;;17.65;50.18;101041.44;12253172;19;20082;-83
2023/01/01 08:15:38;;;;;;;4.47;2.97;;;18.50;49.60;;;17.59;50.07;101025.28;12255246;19;20014;-82
2023/01/01 08:19:40;;;;;;;2.75;2.47;;;18.50;49.60;;;17.63;50.25;101043.41;12252535;19;20014;-86
2023/01/01 08:23:41;;;;;;;2.85;2.25;;;18.60;49.50;;;17.57;50.24;101035.94;12251281;19;20021;-82
2023/01/01 08:27:44;;;;;;;2.45;2.10;;;18.50;49.60;;;17.64;50.11;101060.91;12250357;19;20013;-83
2023/01/01 08:31:46;;;;;;;2.28;2.08;;;18.60;49.60;;;17.63;50.30;101053.97;12250049;19;20010;-83
2023/01/01 08:35:48;;;;;;;2.45;1.90;;;18.60;49.50;;;17.43;50.39;101020.38;12263645;19;20074;-83
2023/01/01 08:39:52;;;;;;;4.03;2.85;;;18.60;49.70;;;17.48;50.22;101028.75;12261625;19;20022;-84
2023/01/01 08:43:54;;;;;;;4.22;2.85;;;18.60;49.50;;;17.62;50.05;101057.53;12259421;19;20469;-84
2023/01/01 08:47:56;;;;;;;2.88;2.47;;;18.50;49.50;;;17.62;50.00;101068.09;12262047;19;20010;-82
2023/01/01 08:51:58;;;;;;;3.95;2.38;;;18.60;49.40;;;17.67;50.19;101070.41;12258360;19;20058;-83
2023/01/01 08:56:08;;;;;;;3.35;2.40;;;18.60;49.50;;;17.65;49.94;101078.44;12261738;19;20018;-83
2023/01/01 09:00:12;;;;;;;2.33;2.13;;;18.50;49.40;;;17.67;50.15;101079.16;12259847;19;20015;-83
2023/01/01 09:04:16;;;;;;;2.92;2.35;;;18.60;49.70;;;17.66;50.20;101085.41;12256832;19;20015;-83
2023/01/01 09:08:18;;;;;;;2.20;2.00;;;18.50;49.70;;;17.65;49.91;101093.44;12258707;19;20053;-83
2023/01/01 09:12:19;;;;;;;3.67;2.08;;;18.50;49.40;;;17.64;49.95;101089.97;12257103;19;20023;-83
2023/01/01 09:16:23;;;;;;;2.63;2.10;;;18.50;49.40;;;17.63;50.15;101083.00;12259704;19;20105;-82
2023/01/01 09:20:24;;;;;;;6.28;2.65;;;18.60;49.40;;;17.74;49.99;101126.19;12260688;19;20035;-83
2023/01/01 09:24:26;;;;;;;2.70;2.35;;;18.60;49.30;;;17.52;50.01;101085.63;12257477;19;20018;-83
2023/01/01 09:28:29;;;;;;;3.22;2.10;;;18.60;49.60;;;17.75;50.00;101141.13;12259964;19;20014;-82
2023/01/01 09:32:31;;;;;;;2.95;2.42;;;18.60;49.60;;;17.65;49.90;101119.84;12259736;19;20018;-84
2023/01/01 09:36:33;;;;;;;4.72;2.33;;;18.60;49.60;;;17.77;49.89;101152.38;12260609;19;20003;-83
2023/01/01 09:40:35;;;;;;;4.70;2.10;;;18.60;49.30;;;17.77;49.93;101152.38;12259316;19;20019;-83
2023/01/01 09:44:54;;;;;;;2.10;1.75;;;18.70;49.50;;;17.75;49.88;101152.50;12253757;19;20039;-83
2023/01/01 09:49:04;;;;;;;1.90;1.70;;;18.60;49.60;;;17.64;49.87;101123.47;12261734;19;20063;-84
2023/01/01 09:53:17;;;;;;;2.72;1.92;;;18.70;49.60;;;17.78;50.09;101144.34;12263710;19;20010;-84
2023/01/01 09:57:27;;;;;;;4.07;2.15;;;18.60;49.50;;;17.66;50.10;101132.94;12262853;19;20011;-82
2023/01/01 10:01:51;;;;;;;2.17;1.95;;;18.70;49.30;;;17.79;49.81;101158.41;12264538;19;20017;-83
2023/01/01 10:06:22;;;;;;;3.08;1.77;;;18.70;49.40;;;17.80;49.96;101155.66;12262909;19;20011;-83
2023/01/01 10:10:39;;;;;;;3.28;1.58;;;18.70;49.70;;;17.79;49.85;101138.13;12264705;19;20019;-85
2023/01/01 10:14:48;;;;;;;3.50;1.70;;;18.70;49.70;;;17.86;49.95;101165.75;12258439;19;20010;-84
2023/01/01 10:18:57;;;;;;;6.15;2.03;;;18.70;49.60;;;17.83;49.75;101149.31;12262670;19;20793;-82
2023/01/01 10:23:25;;;;;;;2.45;2.03;;;18.70;49.50;;;17.84;49.99;101156.25;12259955;19;20022;-83
2023/01/01 10:27:36;;;;;;;2.75;1.98;;;18.80;49.80;;;17.82;49.69;101158.16;12257890;19;20047;-83
2023/01/01 10:31:45;;;;;;;2.30;1.70;;;18.80;49.80;;;17.77;49.85;101140.03;12258589;19;20018;-83
2023/01/01 10:35:52;;;;;;;2.05;1.55;;;18.80;49.50;;;17.96;50.02;101159.72;12260606;19;20018;-83
2023/01/01 10:39:54;;;;;;;3.53;2.03;;;18.80;49.70;;;17.98;49.96;101163.09;12264617;19;20031;-84
2023/01/01 10:43:56;;;;;;;2.95;1.85;;;18.90;49.60;;;18.02;49.83;101168.00;12261489;19;20086;-84
2023/01/01 10:48:29;;;;;;;2.38;1.98;;;18.90;49.70;;;18.01;49.54;101190.13;12260048;19;20002;-85
2023/01/01 10:52:39;;;;;;;2.67;1.60;;;19.00;49.40;;;17.90;49.57;101166.34;12253600;19;20018;-85
2023/01/01 10:56:42;;;;;;;4.93;1.55;;;19.00;49.60;;;18.02;49.76;101165.38;12261946;19;20007;-83
2023/01/01 11:01:00;;;;;;;1.70;1.42;;;19.00;49.60;;;18.11;49.89;101195.50;12263240;19;20342;-83
2023/01/01 11:05:18;;;;;;;2.50;1.60;;;19.00;49.70;;;18.14;49.92;101185.53;12262632;19;20014;-84
2023/01/01 11:09:28;;;;;;;2.67;1.20;;;19.00;49.80;;;18.10;49.57;101176.19;12260288;19;20022;-85
2023/01/01 11:13:31;;;;;;;1.88;1.58;;;19.10;49.70;;;18.14;49.72;101159.09;12255357;19;20018;-84
2023/01/01 11:17:35;;;;;;;2.60;1.80;;;19.10;49.70;;;18.14;49.90;101172.31;12257747;19;20021;-84
2023/01/01 11:21:46;;;;;;;3.53;1.65;;;19.10;49.40;;;18.13;49.69;101183.84;12258781;19;20079;-84
2023/01/01 11:26:25;;;;;;;3.67;1.42;;;19.10;49.50;;;18.16;49.64;101190.69;12257259;19;20019;-84
2023/01/01 11:30:28;;;;;;;2.63;2.00;;;19.20;49.50;;;18.23;49.77;101218.34;12256693;19;20014;-84
2023/01/01 11:34:37;;;;;;;5.22;2.20;;;19.10;49.50;;;18.28;49.70;101220.59;12255441;19;20018;-85
2023/01/01 11:38:39;;;;;;;2.25;1.70;;;19.20;49.50;;;18.13;49.70;101205.00;12257167;19;20028;-85
2023/01/01 11:42:47;;;;;;;1.90;1.50;;;19.20;49.50;;;18.24;49.63;101227.94;12252665;19;20014;-84
2023/01/01 11:46:48;;;;;;;2.17;1.40;;;19.20;49.50;;;18.20;49.63;101204.50;12252908;19;20027;-83
2023/01/01 11:51:10;;;;;;;1.60;1.50;;;19.20;49.60;;;18.20;49.63;101207.16;12254424;19;20030;-84
2023/01/01 11:55:26;;;;;;;2.83;1.90;;;19.20;49.50;;;18.28;49.62;101207.38;12252981;19;20010;-83
2023/01/01 11:59:40;;;;;;;1.70;1.55;;;19.20;49.40;;;18.27;49.53;101188.03;12255802;19;20112;-84
2023/01/01 12:04:18;;;;;;;1.67;1.30;;;19.20;49.10;;;18.24;49.60;101201.50;12251722;19;20047;-84
2023/01/01 12:08:41;;;;;;;3.35;1.73;;;19.20;49.50;;;18.22;49.37;101198.13;12265401;19;20027;-83
2023/01/01 12:12:58;;;;;;;4.20;1.33;;;19.20;49.50;;;18.30;49.32;101222.16;12279661;19;20019;-83
2023/01/01 12:17:17;;;;;;;2.10;1.40;;;19.20;49.50;;;18.30;49.44;101227.44;12283746;19;20061;-83
2023/01/01 12:21:32;;;;;;;2.30;1.48;;;19.20;49.50;;;18.30;49.37;101216.88;12276056;19;20473;-85
2023/01/01 12:25:43;;;;;;;5.22;1.85;;;19.20;49.60;;;18.31;49.28;101228.31;12279524;19;20067;-84
2023/01/01 12:30:11;;;;;;;2.28;1.70;;;19.20;49.50;;;18.24;49.48;101227.09;12278741;19;20011;-84
2023/01/01 12:34:20;;;;;;;1.48;1.38;;;19.20;49.60;;;18.30;49.45;101226.59;12276211;19;20006;-83
2023/01/01 12:38:56;;;;;;;2.38;1.60;;;19.20;49.50;;;18.33;49.55;101243.09;12276816;19;20018;-84
2023/01/01 12:43:09;;;;;;;3.40;1.60;;;19.20;49.50;;;18.34;49.67;101234.19;12277326;19;20887;-83
2023/01/01 12:47:43;;;;;;;3.77;1.60;;;19.20;49.50;;;18.32;49.43;101230.81;12270412;19;20025;-85
2023/01/01 12:52:21;;;;;;;3.47;1.60;;;19.20;49.60;;;18.33;49.45;101216.66;12280002;19;20031;-84
2023/01/01 12:56:45;;;;;;;2.72;1.40;;;19.20;49.60;;;18.34;49.30;101217.47;12280176;19;20090;-84
2023/01/01 13:01:03;;;;;;;2.85;1.65;;;19.20;49.60;;;18.27;49.22;101200.41;12279431;19;20014;-84
2023/01/01 13:05:34;;;;;;;4.00;1.50;;;19.20;49.60;;;18.26;49.56;101191.66;12270227;19;20045;-85
2023/01/01 13:09:44;;;;;;;2.63;1.30;;;19.20;49.70;;;18.30;49.49;101214.22;12271866;19;20014;-84
2023/01/01 13:13:46;;;;;;;2.90;1.95;;;19.20;49.60;;;18.10;49.50;101188.56;12267862;19;20007;-84
2023/01/01 13:17:52;;;;;;;2.17;1.98;;;19.20;49.50;;;18.32;49.24;101216.75;12276924;19;20057;-84
2023/01/01 13:21:53;;;;;;;2.55;1.75;;;19.20;49.60;;;18.31;49.49;101231.78;12264160;19;20017;-85
2023/01/01 13:26:35;;;;;;;3.22;2.10;;;19.10;49.60;;;18.16;49.37;101219.78;12265296;19;20022;-83
2023/01/01 13:30:37;;;;;;;4.70;2.25;;;19.10;50.20;;;18.31;49.29;101241.53;12253371;19;20134;-85
2023/01/01 13:34:59;;;;;;;2.53;1.92;;;19.10;49.70;;;18.26;49.54;101267.50;12250538;19;20049;-83
2023/01/01 13:39:01;;;;;;;4.85;2.22;;;19.10;49.80;;;18.08;49.29;101227.47;12259264;19;20421;-85
2023/01/01 13:43:18;;;;;;;2.50;1.88;;;19.10;50.20;;;17.89;49.31;101213.06;12262184;19;20038;-83
2023/01/01 13:47:54;;;;;;;2.78;2.15;;;19.10;49.70;;;18.10;49.58;101252.00;12261218;19;20022;-85
2023/01/01 13:52:54;;;;;;;3.45;2.20;;;19.10;49.90;;;18.21;49.48;101282.88;12261439;19;20022;-84
2023/01/01 13:57:22;;;;;;;5.18;2.25;;;19.10;49.90;;;18.12;49.49;101287.09;12258678;19;20018;-84
2023/01/01 14:02:15;;;;;;;3.22;1.77;;;19.00;49.90;;;18.13;49.40;101313.38;12257006;19;20077;-84
2023/01/01 14:06:37;;;;;;;4.63;2.20;;;19.00;49.90;;;18.16;49.43;101314.94;12259871;19;20018;-83
2023/01/01 14:10:39;;;;;;;5.70;2.72;;;19.00;50.00;;;18.09;49.55;101306.66;12260363;19;20082;-83
2023/01/01 14:14:40;;;;;;;3.47;2.15;;;19.00;50.00;;;18.08;49.26;101307.59;12253734;19;20011;-85
2023/01/01 14:18:47;;;;;;;2.40;2.00;;;19.00;50.00;;;18.05;49.30;101315.78;12258663;19;20480;-83
2023/01/01 14:22:51;;;;;;;3.28;2.00;;;19.00;50.00;;;18.08;49.50;101330.56;12256338;19;20454;-84
2023/01/01 14:26:54;;;;;;;3.35;2.20;;;18.90;50.00;;;18.13;49.25;101331.88;12253923;19;20018;-84
2023/01/01 14:30:58;;;;;;;3.28;2.50;;;18.90;50.10;;;18.06;49.29;101324.53;12260342;19;20014;-83
2023/01/01 14:35:00;;;;;;;3.88;2.33;;;18.90;50.00;;;18.08;49.38;101331.41;12257744;19;20049;-84
2023/01/01 14:39:02;;;;;;;4.55;2.70;;;18.90;50.10;;;18.07;49.50;101328.88;12260492;19;20401;-83
2023/01/01 14:43:09;;;;;;;3.30;2.33;;;18.90;50.10;;;17.91;49.42;101306.28;12260705;19;20142;-83
2023/01/01 14:47:35;;;;;;;3.13;2.22;;;18.90;50.10;;;18.02;49.48;101342.44;12255846;19;20014;-83
2023/01/01 14:51:40;;;;;;;3.38;2.33;;;18.90;50.20;;;18.11;49.63;101343.53;12257244;19;20497;-84
2023/01/01 14:55:46;;;;;;;3.17;2.20;;;18.90;50.20;;;18.05;49.60;101339.56;12257712;19;20385;-83
2023/01/01 14:59:53;;;;;;;4.20;2.17;;;18.90;50.20;;;18.08;49.65;101357.00;12256088;19;20021;-83
2023/01/01 15:04:05;;;;;;;1.83;1.73;;;18.90;50.20;;;17.86;49.34;101331.38;12255152;19;20015;-84
2023/01/01 15:08:20;;;;;;;3.92;2.22;;;18.80;50.20;;;17.86;49.56;101334.00;12257086;19;20492;-84
2023/01/01 15:12:23;;;;;;;2.40;1.80;;;18.80;50.20;;;17.96;49.35;101347.34;12252829;19;20011;-83
2023/01/01 15:16:26;;;;;;;1.83;1.58;;;18.80;50.30;;;17.70;49.46;101308.72;12254392;19;20351;-84
2023/01/01 15:20:29;;;;;;;2.67;1.92;;;18.80;50.30;;;17.89;49.51;101352.28;12252714;19;20481;-83
2023/01/01 15:24:32;;;;;;;2.92;2.20;;;18.80;50.30;;;17.91;49.52;101368.84;12250737;19;20046;-83
2023/01/01 15:28:37;;;;;;;2.38;1.85;;;18.80;50.30;;;17.87;49.48;101367.38;12253662;19;20023;-83
2023/01/01 15:32:39;;;;;;;2.50;1.87;;;18.80;50.40;;;17.80;49.59;101367.03;12253055;19;20485;-83
2023/01/01 15:36:40;;;;;;;3.78;1.88;;;18.70;50.30;;;17.87;49.55;101381.44;12253392;19;20014;-84
2023/01/01 15:40:43;;;;;;;4.28;1.60;;;18.70;50.40;;;17.82;49.26;101391.53;12254257;19;20011;-84
2023/01/01 15:44:45;;;;;;;3.25;1.75;;;18.70;50.40;;;17.77;49.55;101393.66;12247975;19;20022;-83
2023/01/01 15:48:50;;;;;;;1.77;1.60;;;18.70;50.50;;;17.83;49.42;101402.94;12252521;19;20519;-83
2023/01/01 15:53:24;;;;;;;3.42;1.85;;;18.60;50.50;;;17.76;49.65;101401.69;12253589;19;20011;-83
2023/01/01 15:57:26;;;;;;;2.25;1.70;;;18.60;50.50;;;17.68;49.76;101395.16;12251587;19;20014;-84
2023/01/01 16:01:31;;;;;;;3.40;1.80;;;18.60;50.60;;;17.76;49.39;101412.25;12251985;19;20026;-83
2023/01/01 16:05:33;;;;;;;2.00;1.73;;;18.60;50.60;;;17.71;49.59;101417.84;12249410;19;20473;-83
2023/01/01 16:09:38;;;;;;;1.80;1.50;;;18.50;50.60;;;17.67;49.52;101406.69;12245981;19;20019;-84
2023/01/01 16:13:40;;;;;;;2.00;1.60;;;18.50;50.60;;;17.71;49.67;101425.78;12249407;19;20017;-84
2023/01/01 16:17:43;;;;;;;2.15;1.65;;;18.50;50.70;;;17.60;49.55;101416.00;12253368;19;20018;-84
2023/01/01 16:21:44;;;;;;;3.00;1.33;;;18.50;50.70;;;17.65;49.79;101426.25;12251001;19;20026;-84
2023/01/01 16:25:46;;;;;;;2.75;1.83;;;18.50;50.70;;;17.59;49.81;101429.34;12251362;19;20002;-83
2023/01/01 16:29:48;;;;;;;2.47;1.40;;;18.40;50.70;;;17.52;49.56;101402.53;12250623;19;20019;-83
2023/01/01 16:33:55;;;;;;;2.20;1.98;;;18.40;50.80;;;17.57;49.76;101402.19;12244348;19;20366;-84
2023/01/01 16:37:56;;;;;;;2.95;1.77;;;18.40;50.80;;;17.54;49.64;101402.44;12246386;19;20025;-83
2023/01/01 16:41:59;;;;;;;2.70;1.50;;;18.40;50.80;;;17.41;49.75;101397.19;12241724;19;20021;-84
2023/01/01 16:46:00;;;;;;;2.97;1.60;;;18.30;50.80;;;17.51;49.81;101429.06;12245715;19;20089;-84
2023/01/01 16:50:02;;;;;;;4.05;1.60;;;18.30;50.80;;;17.44;49.93;101412.81;12248739;19;20011;-84
2023/01/01 16:54:04;;;;;;;4.60;2.05;;;18.30;51.20;;;17.43;49.77;101419.91;12247059;19;20006;-84
2023/01/01 16:58:05;;;;;;;5.40;3.58;;;18.20;50.90;;;17.46;49.63;101429.41;12262265;19;20007;-84